Alfred, Canada
Current Conditions -  °F | °C
As of 7:00 AM on Friday 24 Oct 2014 (Local Time) from CYND Reporting Station
Broken Clouds Broken Clouds  
Wind Chill: 41°   Ceiling: 10000
Heat Index: 41°   Visibility: 15mi
Dew Point: 39°   Wind: 0mph
Humidity: 93%   Direction: NA
Pressure: 29.94"   Gusts: NA
Location:  45.55°N, 74.87°W
Report Text: CYND 241100Z 00000KT 15SM BKN100 05/04 A2994 RMK AC6 SLP139
Loading
Personal Weather Stations






























Interactive Weather Map
Tropical Storm Tracking
New forecast layout! Learn more

10-Day Weather Forecast

Advertisements
Track Severe Weather on mobile